createdAt,value
2022-11-13T00:02:26.872Z,7.97
2022-11-13T00:04:54.224Z,7.60
2022-11-13T00:07:21.305Z,8.23
2022-11-13T00:09:48.357Z,7.70
2022-11-13T00:12:16.818Z,8.27
2022-11-13T00:14:44.458Z,8.37
2022-11-13T00:17:11.366Z,7.73
2022-11-13T00:19:38.361Z,7.20
2022-11-13T00:22:05.274Z,7.37
2022-11-13T00:24:32.241Z,7.97
2022-11-13T00:26:59.214Z,8.07
2022-11-13T00:29:27.523Z,8.07
2022-11-13T00:31:54.621Z,7.50
2022-11-13T00:37:08.498Z,8.10
2022-11-13T00:39:35.460Z,7.60
2022-11-13T00:42:02.483Z,7.57
2022-11-13T00:44:30.787Z,7.30
2022-11-13T00:46:57.751Z,7.40
2022-11-13T00:49:24.748Z,7.50
2022-11-13T00:51:51.700Z,7.90
2022-11-13T00:54:18.989Z,7.90
2022-11-13T00:56:45.944Z,7.70
2022-11-13T00:59:13.022Z,7.27
2022-11-13T01:01:41.371Z,7.27
2022-11-13T01:04:08.351Z,7.50
2022-11-13T01:06:35.332Z,8.40
2022-11-13T01:09:02.341Z,8.87
2022-11-13T01:11:31.235Z,7.37
2022-11-13T01:13:58.734Z,7.27
2022-11-13T01:16:27.651Z,7.93
2022-11-13T01:18:57.031Z,7.63
2022-11-13T01:21:27.345Z,6.40
2022-11-13T01:23:55.033Z,7.57
2022-11-13T01:26:25.895Z,7.33
2022-11-13T01:28:54.040Z,6.87
2022-11-13T01:31:24.572Z,7.43
2022-11-13T01:33:51.972Z,7.63
2022-11-13T01:36:26.007Z,8.40
2022-11-13T01:38:53.525Z,7.67
2022-11-13T01:41:24.819Z,7.47
2022-11-13T01:43:54.416Z,7.60
2022-11-13T01:46:26.736Z,7.43
2022-11-13T01:49:13.166Z,7.40
2022-11-13T01:51:49.107Z,6.93
2022-11-13T01:54:22.212Z,6.37
2022-11-13T01:56:51.168Z,6.80
2022-11-13T01:59:24.163Z,7.80
2022-11-13T02:01:51.348Z,7.30
2022-11-13T02:04:18.407Z,7.07
2022-11-13T02:06:51.811Z,7.50
2022-11-13T02:09:23.386Z,7.87
2022-11-13T02:11:52.151Z,7.07
2022-11-13T02:14:22.704Z,6.57
2022-11-13T02:16:56.209Z,7.13
2022-11-13T02:19:29.728Z,7.33
2022-11-13T02:22:10.986Z,6.70
2022-11-13T02:24:45.279Z,7.23
2022-11-13T02:27:23.084Z,7.13
2022-11-13T02:29:50.065Z,6.93
2022-11-13T02:32:17.096Z,7.20
2022-11-13T02:34:44.071Z,6.60
2022-11-13T02:37:11.495Z,6.77
2022-11-13T02:39:40.399Z,6.83
2022-11-13T02:42:07.331Z,6.80
2022-11-13T02:44:34.347Z,7.33
2022-11-13T02:47:01.302Z,6.83
2022-11-13T02:49:28.218Z,6.27
2022-11-13T02:51:55.167Z,6.23
2022-11-13T02:54:22.205Z,5.87
2022-11-13T02:56:50.524Z,7.03
2022-11-13T02:59:17.501Z,6.40
2022-11-13T03:01:44.489Z,5.83
2022-11-13T03:04:11.459Z,6.53
2022-11-13T03:06:38.479Z,6.40
2022-11-13T03:09:05.460Z,6.43
2022-11-13T03:11:32.446Z,6.30
2022-11-13T03:14:00.745Z,6.03
2022-11-13T03:16:28.480Z,7.07
2022-11-13T03:18:56.328Z,7.00
2022-11-13T03:21:24.221Z,7.37
2022-11-13T03:23:51.220Z,7.00
2022-11-13T03:26:18.326Z,6.53
2022-11-13T03:28:45.858Z,6.23
2022-11-13T03:31:14.227Z,6.27
2022-11-13T03:33:41.569Z,7.10
2022-11-13T03:36:09.086Z,6.40
2022-11-13T03:38:36.442Z,6.83
2022-11-13T03:41:03.954Z,7.40
2022-11-13T03:43:31.386Z,6.27
2022-11-13T03:45:58.375Z,6.77
2022-11-13T03:48:26.939Z,6.70
2022-11-13T03:50:55.846Z,7.17
2022-11-13T03:53:22.833Z,7.13
2022-11-13T03:55:49.857Z,6.47
2022-11-13T03:58:17.449Z,6.77
2022-11-13T04:00:45.942Z,6.60
2022-11-13T04:03:12.902Z,6.70
2022-11-13T04:05:43.024Z,6.57
2022-11-13T04:08:10.661Z,7.20
2022-11-13T04:10:37.641Z,6.73
2022-11-13T04:13:04.650Z,6.90
2022-11-13T04:15:31.627Z,6.70
2022-11-13T04:17:58.643Z,6.63
2022-11-13T04:20:27.763Z,7.23
2022-11-13T04:22:56.697Z,7.70
2022-11-13T04:25:23.874Z,6.50
2022-11-13T04:27:51.614Z,6.70
2022-11-13T04:30:19.145Z,6.67
2022-11-13T04:32:46.110Z,7.30
2022-11-13T04:35:13.096Z,6.70
2022-11-13T04:37:40.147Z,6.80
2022-11-13T04:40:10.942Z,6.73
2022-11-13T04:42:49.873Z,7.53
2022-11-13T04:45:18.330Z,6.80
2022-11-13T04:47:45.340Z,6.90
2022-11-13T04:50:14.146Z,7.87
2022-11-13T04:52:41.245Z,7.27
2022-11-13T04:55:11.532Z,9.67
2022-11-13T04:57:39.336Z,7.60
2022-11-13T05:00:09.364Z,6.67
2022-11-13T05:02:36.639Z,7.80
2022-11-13T05:05:05.506Z,7.20
2022-11-13T05:07:32.658Z,7.33
2022-11-13T05:09:59.641Z,7.50
2022-11-13T05:12:27.917Z,7.50
2022-11-13T05:14:54.860Z,7.10
2022-11-13T05:17:23.118Z,7.07
2022-11-13T05:19:50.049Z,8.13
2022-11-13T05:22:16.976Z,7.73
2022-11-13T05:24:43.897Z,7.10
2022-11-13T05:27:16.871Z,7.20
2022-11-13T05:29:45.681Z,8.07
2022-11-13T05:32:12.717Z,7.60
2022-11-13T05:34:39.688Z,7.43
2022-11-13T05:37:06.643Z,8.10
2022-11-13T05:39:33.560Z,7.47
2022-11-13T05:42:00.482Z,6.87
2022-11-13T05:44:27.397Z,8.13
2022-11-13T05:46:55.688Z,7.83
2022-11-13T05:49:22.612Z,7.23
2022-11-13T05:51:49.567Z,8.13
2022-11-13T05:54:16.573Z,7.47
2022-11-13T05:56:43.562Z,7.00
2022-11-13T05:59:10.623Z,8.40
2022-11-13T06:01:40.482Z,8.70
2022-11-13T06:04:10.663Z,8.47
2022-11-13T06:06:37.698Z,8.57
2022-11-13T06:09:06.649Z,8.33
2022-11-13T06:11:34.034Z,7.93
2022-11-13T06:14:01.758Z,7.67
2022-11-13T06:16:33.918Z,7.80
2022-11-13T06:19:03.677Z,8.30
2022-11-13T06:21:35.644Z,7.50
2022-11-13T06:24:04.050Z,7.43
2022-11-13T06:26:33.861Z,7.93
2022-11-13T06:29:03.615Z,8.70
2022-11-13T06:31:34.761Z,7.87
2022-11-13T06:34:02.010Z,8.47
2022-11-13T06:36:33.520Z,7.97
2022-11-13T06:39:01.042Z,7.90
2022-11-13T06:41:31.281Z,8.03
2022-11-13T06:44:02.787Z,8.27
2022-11-13T06:46:31.419Z,8.10
2022-11-13T06:48:59.130Z,8.60
2022-11-13T06:51:28.937Z,8.07
2022-11-13T06:53:58.314Z,8.77
2022-11-13T06:56:26.224Z,8.33
2022-11-13T06:58:55.016Z,8.70
2022-11-13T07:01:25.406Z,7.73
2022-11-13T07:03:53.063Z,8.53
2022-11-13T07:06:24.085Z,8.57
2022-11-13T07:08:52.379Z,8.37
2022-11-13T07:11:23.698Z,9.30
2022-11-13T07:13:51.101Z,8.90
2022-11-13T07:16:18.693Z,8.33
2022-11-13T07:18:50.338Z,8.33
2022-11-13T07:21:17.443Z,8.47
2022-11-13T07:23:44.497Z,8.37
2022-11-13T07:26:11.686Z,8.00
2022-11-13T07:28:40.218Z,9.90
2022-11-13T07:31:09.336Z,9.17
2022-11-13T07:33:36.362Z,9.37
2022-11-13T07:36:03.918Z,8.87
2022-11-13T07:38:31.987Z,8.40
2022-11-13T07:40:59.858Z,8.87
2022-11-13T07:43:27.498Z,9.67
2022-11-13T07:45:58.493Z,9.40
2022-11-13T07:48:27.874Z,9.37
2022-11-13T07:50:59.327Z,9.00
2022-11-13T07:53:26.275Z,9.37
2022-11-13T07:55:53.321Z,9.43
2022-11-13T07:58:20.274Z,10.07
2022-11-13T08:00:47.412Z,10.90
2022-11-13T08:03:18.644Z,10.63
2022-11-13T08:05:45.609Z,11.53
2022-11-13T08:08:14.567Z,11.83
2022-11-13T08:10:42.025Z,12.50
2022-11-13T08:13:10.908Z,12.20
2022-11-13T08:15:38.689Z,12.00
2022-11-13T08:18:06.588Z,11.53
2022-11-13T08:20:34.918Z,12.53
2022-11-13T08:23:04.218Z,11.30
2022-11-13T08:25:33.278Z,11.93
2022-11-13T08:28:00.717Z,11.70
2022-11-13T08:30:29.000Z,11.17
2022-11-13T08:32:56.338Z,11.93
2022-11-13T08:35:29.073Z,11.23
2022-11-13T08:38:02.196Z,11.93
2022-11-13T08:40:29.804Z,10.57
2022-11-13T08:42:59.869Z,11.40
2022-11-13T08:45:27.337Z,11.30
2022-11-13T08:47:54.482Z,11.90
2022-11-13T08:50:21.516Z,11.73
2022-11-13T08:52:53.276Z,12.43
2022-11-13T08:55:22.222Z,12.30
2022-11-13T08:57:49.516Z,12.37
2022-11-13T09:00:17.964Z,11.90
2022-11-13T09:02:45.205Z,12.60
2022-11-13T09:05:12.288Z,12.53
2022-11-13T09:07:39.259Z,12.53
2022-11-13T09:10:07.929Z,12.83
2022-11-13T09:12:36.224Z,12.77
2022-11-13T09:15:03.416Z,11.57
2022-11-13T09:17:30.701Z,12.53
2022-11-13T09:20:03.529Z,12.23
2022-11-13T09:22:31.069Z,12.97
2022-11-13T09:24:58.001Z,13.30
2022-11-13T09:27:24.944Z,13.13
2022-11-13T09:29:55.684Z,11.93
2022-11-13T09:32:22.951Z,11.93
2022-11-13T09:34:49.881Z,12.57
2022-11-13T09:37:17.023Z,12.10
2022-11-13T09:39:43.938Z,12.33
2022-11-13T09:42:18.869Z,11.83
2022-11-13T09:44:53.596Z,12.07
2022-11-13T09:47:27.595Z,12.10
2022-11-13T09:50:02.552Z,11.77
2022-11-13T09:52:36.859Z,11.50
2022-11-13T09:55:05.349Z,13.87
2022-11-13T09:57:42.739Z,12.57
2022-11-13T10:00:15.247Z,11.37
2022-11-13T10:02:58.268Z,11.23
2022-11-13T10:05:43.040Z,11.83
2022-11-13T10:08:17.971Z,11.17
2022-11-13T10:10:55.411Z,11.40
2022-11-13T10:13:38.109Z,10.70
2022-11-13T10:16:20.838Z,12.00
2022-11-13T10:18:50.827Z,11.23
2022-11-13T10:21:32.151Z,11.93
2022-11-13T10:24:14.388Z,10.67
2022-11-13T10:26:41.588Z,10.67
2022-11-13T10:29:13.145Z,10.57
2022-11-13T10:31:46.969Z,11.03
2022-11-13T10:34:17.834Z,11.80
2022-11-13T10:37:03.059Z,12.00
2022-11-13T10:39:30.042Z,11.57
2022-11-13T10:41:57.027Z,12.00
2022-11-13T10:44:32.426Z,11.70
2022-11-13T10:47:13.573Z,10.40
2022-11-13T10:49:41.939Z,10.37
2022-11-13T10:52:19.494Z,10.10
2022-11-13T10:54:47.333Z,10.73
2022-11-13T10:57:33.120Z,12.70
2022-11-13T11:00:00.914Z,11.07
2022-11-13T11:02:29.039Z,11.57
2022-11-13T11:05:05.970Z,10.83
2022-11-13T11:07:41.383Z,11.77
2022-11-13T11:10:23.006Z,11.30
2022-11-13T11:12:55.197Z,11.90
2022-11-13T11:15:28.287Z,10.40
2022-11-13T11:18:02.374Z,10.50
2022-11-13T11:20:44.784Z,10.60
2022-11-13T11:23:24.461Z,9.93
2022-11-13T11:25:58.339Z,9.77
2022-11-13T11:28:35.809Z,9.63
2022-11-13T11:31:12.980Z,9.40
2022-11-13T11:33:52.663Z,10.20
2022-11-13T11:36:32.253Z,9.43
2022-11-13T11:39:20.401Z,8.40
2022-11-13T11:41:58.458Z,9.20
2022-11-13T11:44:33.401Z,8.77
2022-11-13T11:47:00.403Z,7.87
2022-11-13T11:49:27.520Z,8.43
2022-11-13T11:52:11.817Z,8.43
2022-11-13T11:54:43.679Z,9.47
2022-11-13T11:57:39.504Z,10.17
2022-11-13T12:00:12.389Z,8.87
2022-11-13T12:03:24.399Z,9.33
2022-11-13T12:06:11.697Z,8.60
2022-11-13T12:08:52.849Z,9.43
2022-11-13T12:11:29.668Z,9.00
2022-11-13T12:14:09.372Z,8.97
2022-11-13T12:16:49.871Z,8.57
2022-11-13T12:19:31.492Z,8.87
2022-11-13T12:22:12.484Z,10.07
2022-11-13T12:25:03.584Z,9.00
2022-11-13T12:27:38.359Z,9.50
2022-11-13T12:30:16.321Z,8.10
2022-11-13T12:33:06.662Z,8.80
2022-11-13T12:35:34.765Z,9.50
2022-11-13T12:38:14.075Z,9.23
2022-11-13T12:40:55.197Z,9.30
2022-11-13T12:43:51.562Z,8.70
2022-11-13T12:46:19.196Z,9.80
2022-11-13T12:48:47.927Z,9.07
2022-11-13T12:51:17.445Z,9.07
2022-11-13T12:53:48.400Z,9.60
2022-11-13T12:56:32.133Z,8.37
2022-11-13T12:59:33.441Z,7.57
2022-11-13T13:02:04.614Z,8.40
2022-11-13T13:05:01.701Z,8.90
2022-11-13T13:08:04.592Z,7.67
2022-11-13T13:10:49.506Z,8.40
2022-11-13T13:13:28.203Z,8.07
2022-11-13T13:15:58.391Z,7.80
2022-11-13T13:18:30.333Z,8.20
2022-11-13T13:21:09.820Z,7.10
2022-11-13T13:23:39.630Z,6.97
2022-11-13T13:26:15.919Z,7.53
2022-11-13T13:28:50.335Z,7.77
2022-11-13T13:31:37.098Z,7.67
2022-11-13T13:34:31.098Z,7.53
2022-11-13T13:37:18.436Z,8.00
2022-11-13T13:40:02.600Z,8.27
2022-11-13T13:42:53.090Z,8.03
2022-11-13T13:45:36.976Z,8.10
2022-11-13T13:48:11.273Z,8.37
2022-11-13T13:50:45.051Z,8.60
2022-11-13T13:53:18.260Z,8.93
2022-11-13T13:55:50.593Z,8.37
2022-11-13T13:58:24.940Z,8.93
2022-11-13T14:01:17.788Z,8.63
2022-11-13T14:03:45.704Z,8.10
2022-11-13T14:06:21.292Z,8.60
2022-11-13T14:08:48.485Z,8.23
2022-11-13T14:11:19.132Z,7.53
2022-11-13T14:13:46.195Z,7.10
2022-11-13T14:16:14.557Z,7.10
2022-11-13T14:18:42.219Z,7.00
2022-11-13T14:21:16.502Z,7.40
2022-11-13T14:23:48.092Z,6.90
2022-11-13T14:26:15.526Z,7.17
2022-11-13T14:28:53.682Z,7.40
2022-11-13T14:31:29.742Z,7.73
2022-11-13T14:34:00.925Z,7.20
2022-11-13T14:36:32.027Z,6.20
2022-11-13T14:38:59.802Z,7.03
2022-11-13T14:41:34.221Z,7.40
2022-11-13T14:44:02.109Z,7.03
2022-11-13T14:46:35.953Z,7.03
2022-11-13T14:49:03.407Z,6.67
2022-11-13T14:51:34.041Z,6.93
2022-11-13T14:54:07.674Z,8.10
2022-11-13T14:56:38.938Z,7.53
2022-11-13T14:59:16.982Z,7.93
2022-11-13T15:01:56.490Z,7.77
2022-11-13T15:04:24.914Z,7.43
2022-11-13T15:06:55.633Z,8.03
2022-11-13T15:09:24.543Z,8.80
2022-11-13T15:11:51.965Z,9.17
2022-11-13T15:14:21.202Z,9.17
2022-11-13T15:16:52.208Z,9.50
2022-11-13T15:19:30.785Z,9.43
2022-11-13T15:22:26.682Z,9.87
2022-11-13T15:24:44.965Z,8.97
2022-11-13T15:27:16.174Z,10.37
2022-11-13T15:29:44.478Z,9.87
2022-11-13T15:32:14.381Z,9.70
2022-11-13T15:34:43.220Z,10.77
2022-11-13T15:37:13.052Z,10.80
2022-11-13T15:39:40.521Z,10.20
2022-11-13T15:42:14.750Z,10.50
2022-11-13T15:44:41.749Z,10.70
2022-11-13T15:47:28.147Z,10.93
2022-11-13T15:50:12.746Z,11.63
2022-11-13T15:52:44.381Z,12.67
2022-11-13T15:55:27.375Z,12.40
2022-11-13T15:57:55.521Z,14.37
2022-11-13T16:00:25.397Z,13.70
2022-11-13T16:02:55.148Z,13.43
2022-11-13T16:05:25.909Z,12.87
2022-11-13T16:07:53.947Z,13.77
2022-11-13T16:10:24.722Z,15.37
2022-11-13T16:12:52.451Z,15.53
2022-11-13T16:15:19.858Z,14.63
2022-11-13T16:17:50.536Z,14.83
2022-11-13T16:20:18.789Z,17.43
2022-11-13T16:22:47.294Z,16.23
2022-11-13T16:25:17.337Z,20.43
2022-11-13T16:27:45.562Z,15.20
2022-11-13T16:30:19.912Z,15.97
2022-11-13T16:32:47.428Z,16.90
2022-11-13T16:35:16.090Z,18.63
2022-11-13T16:37:43.184Z,15.40
2022-11-13T16:40:21.438Z,16.43
2022-11-13T16:42:48.676Z,18.57
2022-11-13T16:45:17.357Z,17.30
2022-11-13T16:47:45.723Z,18.00
2022-11-13T16:50:16.622Z,19.60
2022-11-13T16:52:43.605Z,17.93
2022-11-13T16:55:10.598Z,18.17
2022-11-13T16:57:39.840Z,17.87
2022-11-13T17:00:12.010Z,18.17
2022-11-13T17:02:39.157Z,18.83
2022-11-13T17:05:06.853Z,17.70
2022-11-13T17:07:33.916Z,17.43
2022-11-13T17:10:28.873Z,17.73
2022-11-13T17:12:54.084Z,16.60
2022-11-13T17:15:21.642Z,17.07
2022-11-13T17:17:49.006Z,17.27
2022-11-13T17:20:19.040Z,17.67
2022-11-13T17:22:48.452Z,17.13
2022-11-13T17:25:17.127Z,16.57
2022-11-13T17:27:44.387Z,17.27
2022-11-13T17:30:14.325Z,16.23
2022-11-13T17:32:41.359Z,17.30
2022-11-13T17:35:12.781Z,16.83
2022-11-13T17:37:40.076Z,16.17
2022-11-13T17:40:09.347Z,15.77
2022-11-13T17:42:36.339Z,15.03
2022-11-13T17:45:03.816Z,15.13
2022-11-13T17:47:33.821Z,15.73
2022-11-13T17:50:06.678Z,15.57
2022-11-13T17:52:34.589Z,13.93
2022-11-13T17:55:05.727Z,13.70
2022-11-13T17:57:33.260Z,15.23
2022-11-13T18:00:00.222Z,15.03
2022-11-13T18:02:27.270Z,15.20
2022-11-13T18:04:58.157Z,14.80
2022-11-13T18:07:26.390Z,14.27
2022-11-13T18:09:53.395Z,13.73
2022-11-13T18:12:20.325Z,13.73
2022-11-13T18:14:52.190Z,11.83
2022-11-13T18:17:19.324Z,12.53
2022-11-13T18:19:46.669Z,13.23
2022-11-13T18:22:15.305Z,11.77
2022-11-13T18:24:42.678Z,12.67
2022-11-13T18:27:10.525Z,13.17
2022-11-13T18:29:37.503Z,12.33
2022-11-13T18:32:04.713Z,12.10
2022-11-13T18:34:32.400Z,13.67
2022-11-13T18:36:59.499Z,12.60
2022-11-13T18:39:27.840Z,12.30
2022-11-13T18:41:58.999Z,12.37
2022-11-13T18:44:26.219Z,12.43
2022-11-13T18:46:53.285Z,11.40
2022-11-13T18:49:20.337Z,11.10
2022-11-13T18:51:47.287Z,11.10
2022-11-13T18:54:14.815Z,12.33
2022-11-13T18:56:43.109Z,11.80
2022-11-13T18:59:11.027Z,11.13
2022-11-13T19:01:39.801Z,11.23
2022-11-13T19:04:22.766Z,10.70
2022-11-13T19:06:51.041Z,10.77
2022-11-13T19:09:19.144Z,10.93
2022-11-13T19:11:47.748Z,10.17
2022-11-13T19:14:17.587Z,12.13
2022-11-13T19:16:45.024Z,10.90
2022-11-13T19:19:18.149Z,10.30
2022-11-13T19:21:46.247Z,11.23
2022-11-13T19:24:14.916Z,11.40
2022-11-13T19:26:43.211Z,10.63
2022-11-13T19:29:11.933Z,11.90
2022-11-13T19:31:38.877Z,13.27
2022-11-13T19:34:08.186Z,12.57
2022-11-13T19:36:36.635Z,13.03
2022-11-13T19:39:04.354Z,13.83
2022-11-13T19:41:31.402Z,12.23
2022-11-13T19:44:00.122Z,13.43
2022-11-13T19:46:31.713Z,13.07
2022-11-13T19:48:58.719Z,13.93
2022-11-13T19:51:26.601Z,14.87
2022-11-13T19:53:55.840Z,14.63
2022-11-13T19:56:24.887Z,14.37
2022-11-13T19:58:52.786Z,15.63
2022-11-13T20:01:23.154Z,14.07
2022-11-13T20:03:56.408Z,15.20
2022-11-13T20:06:24.338Z,15.70
2022-11-13T20:08:51.606Z,15.83
2022-11-13T20:11:18.824Z,15.73
2022-11-13T20:13:46.243Z,16.00
2022-11-13T20:16:15.727Z,16.60
2022-11-13T20:18:44.246Z,18.07
2022-11-13T20:21:12.886Z,18.17
2022-11-13T20:23:40.352Z,18.13
2022-11-13T20:26:13.448Z,18.50
2022-11-13T20:28:40.641Z,18.10
2022-11-13T20:31:16.174Z,18.77
2022-11-13T20:33:43.731Z,19.53
2022-11-13T20:36:13.397Z,20.27
2022-11-13T20:38:40.639Z,18.13
2022-11-13T20:41:10.815Z,19.93
2022-11-13T20:43:37.994Z,21.50
2022-11-13T20:46:07.814Z,20.37
2022-11-13T20:48:35.140Z,20.67
2022-11-13T20:51:07.422Z,19.40
2022-11-13T20:53:36.087Z,20.80
2022-11-13T20:56:03.733Z,21.07
2022-11-13T20:58:31.622Z,20.83
2022-11-13T21:01:02.851Z,20.63
2022-11-13T21:03:29.878Z,19.77
2022-11-13T21:05:56.859Z,18.60
2022-11-13T21:08:24.231Z,19.60
2022-11-13T21:10:52.642Z,20.30
2022-11-13T21:13:19.718Z,20.03
2022-11-13T21:15:46.702Z,19.23
2022-11-13T21:18:13.668Z,20.53
2022-11-13T21:20:40.705Z,19.00
2022-11-13T21:23:07.654Z,20.03
2022-11-13T21:25:34.704Z,18.57
2022-11-13T21:28:03.875Z,19.67
2022-11-13T21:30:30.851Z,19.73
2022-11-13T21:32:59.146Z,18.60
2022-11-13T21:35:27.185Z,19.50
2022-11-13T21:37:54.629Z,21.17
2022-11-13T21:40:22.638Z,19.47
2022-11-13T21:42:49.539Z,20.83
2022-11-13T21:45:17.858Z,21.07
2022-11-13T21:47:44.807Z,18.47
2022-11-13T21:50:12.170Z,18.90
2022-11-13T21:52:39.137Z,20.90
2022-11-13T21:55:07.678Z,18.30
2022-11-13T21:57:34.633Z,19.97
2022-11-13T22:00:01.722Z,17.67
2022-11-13T22:02:30.176Z,19.90
2022-11-13T22:04:57.197Z,19.53
2022-11-13T22:07:24.182Z,20.37
2022-11-13T22:09:51.142Z,19.30
2022-11-13T22:12:18.125Z,20.50
2022-11-13T22:14:45.121Z,19.27
2022-11-13T22:17:12.068Z,19.40
2022-11-13T22:19:40.414Z,20.23
2022-11-13T22:22:07.341Z,19.80
2022-11-13T22:24:34.295Z,19.53
2022-11-13T22:27:01.250Z,20.00
2022-11-13T22:29:28.171Z,18.83
2022-11-13T22:31:55.088Z,19.80
2022-11-13T22:34:21.999Z,18.37
2022-11-13T22:36:50.337Z,19.93
2022-11-13T22:39:17.317Z,19.77
2022-11-13T22:41:44.221Z,19.03
2022-11-13T22:44:14.222Z,19.13
2022-11-13T22:46:41.308Z,19.50
2022-11-13T22:49:11.297Z,20.47
2022-11-13T22:51:41.478Z,20.00
2022-11-13T22:54:12.225Z,18.73
2022-11-13T22:56:40.999Z,19.87
2022-11-13T22:59:11.312Z,19.23
2022-11-13T23:01:40.857Z,20.67
2022-11-13T23:04:12.783Z,20.40
2022-11-13T23:06:39.821Z,20.47
2022-11-13T23:09:06.897Z,19.70
2022-11-13T23:11:40.051Z,21.17
2022-11-13T23:14:12.066Z,20.67
2022-11-13T23:16:39.075Z,21.60
2022-11-13T23:19:06.015Z,21.47
2022-11-13T23:21:33.366Z,21.00
2022-11-13T23:24:00.540Z,21.40
2022-11-13T23:26:28.406Z,20.47
2022-11-13T23:28:57.512Z,20.57
2022-11-13T23:31:24.869Z,20.47
2022-11-13T23:33:51.885Z,20.23
2022-11-13T23:36:18.933Z,20.40
2022-11-13T23:38:46.301Z,20.40
2022-11-13T23:41:13.497Z,21.20
2022-11-13T23:44:07.776Z,19.63
2022-11-13T23:46:29.037Z,20.67
2022-11-13T23:48:56.354Z,19.73
2022-11-13T23:51:23.270Z,20.40
2022-11-13T23:53:50.187Z,22.00
2022-11-13T23:56:17.089Z,19.60
2022-11-13T23:58:44.133Z,20.27
